createdAt,value
2023-11-02T00:01:02.697Z,80.92
2023-11-02T00:02:06.026Z,80.67
2023-11-02T00:03:09.563Z,80.83
2023-11-02T00:04:13.643Z,80.32
2023-11-02T00:05:46.177Z,79.88
2023-11-02T00:06:51.343Z,80.39
2023-11-02T00:07:54.801Z,80.39
2023-11-02T00:09:07.184Z,79.90
2023-11-02T00:10:10.434Z,80.12
2023-11-02T00:11:48.335Z,80.62
2023-11-02T00:12:53.187Z,80.61
2023-11-02T00:13:56.447Z,80.50
2023-11-02T00:15:01.701Z,79.67
2023-11-02T00:16:06.622Z,79.33
2023-11-02T00:17:36.677Z,79.85
2023-11-02T00:18:39.995Z,79.92
2023-11-02T00:19:43.826Z,79.92
2023-11-02T00:20:51.545Z,80.05
2023-11-02T00:21:55.666Z,79.66
2023-11-02T00:22:59.001Z,79.26
2023-11-02T00:24:02.314Z,79.76
2023-11-02T00:25:08.653Z,79.54
2023-11-02T00:26:13.046Z,79.92
2023-11-02T00:27:16.868Z,79.73
2023-11-02T00:28:20.362Z,80.02
2023-11-02T00:29:23.721Z,80.12
2023-11-02T00:30:27.492Z,79.50
2023-11-02T00:31:30.534Z,79.12
2023-11-02T00:32:33.585Z,79.35
2023-11-02T00:33:37.521Z,79.48
2023-11-02T00:34:41.178Z,79.95
2023-11-02T00:35:46.109Z,79.94
2023-11-02T00:36:49.623Z,80.01
2023-11-02T00:37:52.668Z,80.11
2023-11-02T00:38:58.767Z,80.32
2023-11-02T00:40:02.080Z,79.28
2023-11-02T00:41:06.094Z,79.24
2023-11-02T00:42:09.439Z,78.58
2023-11-02T00:43:12.433Z,78.47
2023-11-02T00:44:19.415Z,78.86
2023-11-02T00:45:22.445Z,79.63
2023-11-02T00:46:27.266Z,80.14
2023-11-02T00:47:30.277Z,78.98
2023-11-02T00:48:35.361Z,79.04
2023-11-02T00:49:38.667Z,79.85
2023-11-02T00:50:55.833Z,80.04
2023-11-02T00:52:02.863Z,79.69
2023-11-02T00:53:07.851Z,80.17
2023-11-02T00:54:46.316Z,80.85
2023-11-02T00:55:49.842Z,81.51
2023-11-02T00:56:53.171Z,80.15
2023-11-02T00:57:59.794Z,80.18
2023-11-02T00:59:06.054Z,80.70
2023-11-02T01:00:44.081Z,80.82
2023-11-02T01:01:47.747Z,80.83
2023-11-02T01:02:51.014Z,81.22
2023-11-02T01:04:01.670Z,81.33
2023-11-02T01:05:06.178Z,80.66
2023-11-02T01:06:18.572Z,80.72
2023-11-02T01:07:22.025Z,80.73
2023-11-02T01:08:31.894Z,81.36
2023-11-02T01:09:49.366Z,80.46
2023-11-02T01:10:52.714Z,81.38
2023-11-02T01:11:57.177Z,82.19
2023-11-02T01:13:00.232Z,82.28
2023-11-02T01:14:29.405Z,81.97
2023-11-02T01:16:09.031Z,82.66
2023-11-02T01:17:29.121Z,82.65
2023-11-02T01:18:32.658Z,82.34
2023-11-02T01:19:42.084Z,82.24
2023-11-02T01:21:04.245Z,81.66
2023-11-02T01:22:30.385Z,82.85
2023-11-02T01:23:37.848Z,82.05
2023-11-02T01:24:41.377Z,82.98
2023-11-02T01:25:47.036Z,82.30
2023-11-02T01:27:01.613Z,82.87
2023-11-02T01:28:09.304Z,83.71
2023-11-02T01:29:12.941Z,83.43
2023-11-02T01:30:19.392Z,84.11
2023-11-02T01:31:23.742Z,84.60
2023-11-02T01:32:28.073Z,84.96
2023-11-02T01:33:50.196Z,85.28
2023-11-02T01:34:53.886Z,85.28
2023-11-02T01:35:56.824Z,85.86
2023-11-02T01:37:00.358Z,86.04
2023-11-02T01:38:03.260Z,86.30
2023-11-02T01:39:32.174Z,86.51
2023-11-02T01:40:52.949Z,85.77
2023-11-02T01:42:16.111Z,86.45
2023-11-02T01:43:33.482Z,86.26
2023-11-02T01:44:56.172Z,86.53
2023-11-02T01:46:02.583Z,87.15
2023-11-02T01:47:11.098Z,87.01
2023-11-02T01:48:20.550Z,87.73
2023-11-02T01:49:39.278Z,87.21
2023-11-02T01:50:44.932Z,86.34
2023-11-02T01:51:59.341Z,86.86
2023-11-02T01:53:21.118Z,87.13
2023-11-02T01:55:01.984Z,86.96
2023-11-02T01:56:08.897Z,86.87
2023-11-02T01:57:24.466Z,86.48
2023-11-02T01:58:40.960Z,86.98
2023-11-02T01:59:51.879Z,87.14
2023-11-02T02:01:13.288Z,86.13
2023-11-02T02:02:43.019Z,86.61
2023-11-02T02:04:11.310Z,86.15
2023-11-02T02:05:28.072Z,86.76
2023-11-02T02:06:41.745Z,87.28
2023-11-02T02:08:10.421Z,87.53
2023-11-02T02:09:44.578Z,86.27
2023-11-02T02:10:58.306Z,86.08
2023-11-02T02:12:14.543Z,87.10
2023-11-02T02:13:42.247Z,87.16
2023-11-02T02:15:02.546Z,87.51
2023-11-02T02:16:23.668Z,87.75
2023-11-02T02:17:52.937Z,88.02
2023-11-02T02:19:14.954Z,88.17
2023-11-02T02:20:25.274Z,87.93
2023-11-02T02:21:34.959Z,88.64
2023-11-02T02:22:48.791Z,87.65
2023-11-02T02:24:19.119Z,87.50
2023-11-02T02:25:45.709Z,87.65
2023-11-02T02:27:30.228Z,88.21
2023-11-02T02:28:57.958Z,87.92
2023-11-02T02:30:40.722Z,88.50
2023-11-02T02:32:11.709Z,87.93
2023-11-02T02:33:53.361Z,88.23
2023-11-02T02:35:15.716Z,87.64
2023-11-02T02:37:09.916Z,87.63
2023-11-02T02:38:20.557Z,87.77
2023-11-02T02:39:27.264Z,87.37
2023-11-02T02:40:35.611Z,88.01
2023-11-02T02:41:43.456Z,88.51
2023-11-02T02:42:50.659Z,88.74
2023-11-02T02:43:58.088Z,88.64
2023-11-02T02:45:06.900Z,89.13
2023-11-02T02:46:11.987Z,88.96
2023-11-02T02:47:18.514Z,89.13
2023-11-02T02:48:25.145Z,89.65
2023-11-02T02:49:40.205Z,89.72
2023-11-02T02:50:46.120Z,90.10
2023-11-02T02:51:52.421Z,90.16
2023-11-02T02:52:58.103Z,88.57
2023-11-02T02:54:08.715Z,88.86
2023-11-02T02:55:14.535Z,88.99
2023-11-02T02:56:25.381Z,90.51
2023-11-02T02:57:32.361Z,89.76
2023-11-02T02:58:45.173Z,89.03
2023-11-02T02:59:54.788Z,89.63
2023-11-02T03:00:58.200Z,89.22
2023-11-02T03:02:01.649Z,89.58
2023-11-02T03:03:06.475Z,89.92
2023-11-02T03:04:15.282Z,90.20
2023-11-02T03:05:20.589Z,90.28
2023-11-02T03:06:24.176Z,90.63
2023-11-02T03:07:31.888Z,90.46
2023-11-02T03:08:38.025Z,91.20
2023-11-02T03:09:44.853Z,90.93
2023-11-02T03:10:50.013Z,90.72
2023-11-02T03:11:59.332Z,91.00
2023-11-02T03:13:05.004Z,91.44
2023-11-02T03:14:12.392Z,91.24
2023-11-02T03:15:18.525Z,91.27
2023-11-02T03:16:22.925Z,92.06
2023-11-02T03:17:28.870Z,92.26
2023-11-02T03:18:35.976Z,92.14
2023-11-02T03:19:50.492Z,92.21
2023-11-02T03:20:53.842Z,92.74
2023-11-02T03:21:57.073Z,92.89
2023-11-02T03:23:07.585Z,93.37
2023-11-02T03:24:42.614Z,93.51
2023-11-02T03:26:09.667Z,92.82
2023-11-02T03:27:18.684Z,92.86
2023-11-02T03:28:42.133Z,92.87
2023-11-02T03:30:01.969Z,92.00
2023-11-02T03:31:27.664Z,92.37
2023-11-02T03:33:05.877Z,92.88
2023-11-02T03:34:37.076Z,93.05
2023-11-02T03:35:53.218Z,93.12
2023-11-02T03:36:59.236Z,93.41
2023-11-02T03:38:27.748Z,92.80
2023-11-02T03:39:53.382Z,93.22
2023-11-02T03:41:02.248Z,93.08
2023-11-02T03:42:18.938Z,93.43
2023-11-02T03:43:27.917Z,93.72
2023-11-02T03:44:53.772Z,93.31
2023-11-02T03:46:30.071Z,92.89
2023-11-02T03:47:59.228Z,93.05
2023-11-02T03:49:17.836Z,94.10
2023-11-02T03:50:32.058Z,94.48
2023-11-02T03:51:49.304Z,94.02
2023-11-02T03:53:27.153Z,93.60
2023-11-02T03:55:09.549Z,93.72
2023-11-02T03:56:34.836Z,93.93
2023-11-02T03:58:10.385Z,94.03
2023-11-02T03:59:21.371Z,94.22
2023-11-02T04:00:26.660Z,94.38
2023-11-02T04:01:37.591Z,94.03
2023-11-02T04:02:55.271Z,93.50
2023-11-02T04:04:08.424Z,93.93
2023-11-02T04:05:15.382Z,93.50
2023-11-02T04:06:29.310Z,93.48
2023-11-02T04:07:41.382Z,93.26
2023-11-02T04:08:50.354Z,92.32
2023-11-02T04:10:08.993Z,92.37
2023-11-02T04:11:29.557Z,92.91
2023-11-02T04:12:56.927Z,92.85
2023-11-02T04:14:14.025Z,92.56
2023-11-02T04:15:17.446Z,92.79
2023-11-02T04:16:20.698Z,92.94
2023-11-02T04:17:23.904Z,93.19
2023-11-02T04:18:27.396Z,93.34
2023-11-02T04:19:30.671Z,93.20
2023-11-02T04:20:36.298Z,93.33
2023-11-02T04:21:41.183Z,93.34
2023-11-02T04:22:44.490Z,93.84
2023-11-02T04:23:47.773Z,93.71
2023-11-02T04:24:51.486Z,93.35
2023-11-02T04:25:57.439Z,93.73
2023-11-02T04:27:01.146Z,93.92
2023-11-02T04:28:05.215Z,93.90
2023-11-02T04:29:08.372Z,94.22
2023-11-02T04:30:12.383Z,94.38
2023-11-02T04:31:16.378Z,94.08
2023-11-02T04:32:19.634Z,94.00
2023-11-02T04:33:23.630Z,93.82
2023-11-02T04:34:27.120Z,93.70
2023-11-02T04:35:30.905Z,93.73
2023-11-02T04:36:34.232Z,94.21
2023-11-02T04:37:37.663Z,93.91
2023-11-02T04:38:40.930Z,93.89
2023-11-02T04:39:45.888Z,93.97
2023-11-02T04:40:52.968Z,93.97
2023-11-02T04:41:56.225Z,94.25
2023-11-02T04:43:00.393Z,94.38
2023-11-02T04:44:03.951Z,93.85
2023-11-02T04:45:07.652Z,93.70
2023-11-02T04:46:10.631Z,93.46
2023-11-02T04:47:13.698Z,93.46
2023-11-02T04:48:17.072Z,93.44
2023-11-02T04:49:20.331Z,93.75
2023-11-02T04:50:23.754Z,93.75
2023-11-02T04:51:27.028Z,93.26
2023-11-02T04:52:37.261Z,93.45
2023-11-02T04:53:40.242Z,93.51
2023-11-02T04:54:43.669Z,93.79
2023-11-02T04:55:46.644Z,93.87
2023-11-02T04:56:49.933Z,92.94
2023-11-02T04:57:53.378Z,92.66
2023-11-02T04:58:56.642Z,92.58
2023-11-02T05:00:05.659Z,92.70
2023-11-02T05:01:09.036Z,92.55
2023-11-02T05:02:12.198Z,92.66
2023-11-02T05:03:15.639Z,92.40
2023-11-02T05:04:19.651Z,92.70
2023-11-02T05:05:23.450Z,92.41
2023-11-02T05:06:27.800Z,92.54
2023-11-02T05:07:30.797Z,93.20
2023-11-02T05:08:33.971Z,93.03
2023-11-02T05:09:37.193Z,93.35
2023-11-02T05:10:40.531Z,93.70
2023-11-02T05:11:44.389Z,94.28
2023-11-02T05:12:47.661Z,94.45
2023-11-02T05:13:51.017Z,94.36
2023-11-02T05:14:54.032Z,94.11
2023-11-02T05:15:59.808Z,93.77
2023-11-02T05:17:03.106Z,93.67
2023-11-02T05:18:06.493Z,93.63
2023-11-02T05:19:12.445Z,93.80
2023-11-02T05:20:15.841Z,93.53
2023-11-02T05:21:19.205Z,93.60
2023-11-02T05:22:22.525Z,93.37
2023-11-02T05:23:26.201Z,93.54
2023-11-02T05:24:29.552Z,93.55
2023-11-02T05:25:33.025Z,93.56
2023-11-02T05:26:36.034Z,93.51
2023-11-02T05:27:39.058Z,93.57
2023-11-02T05:28:43.056Z,93.67
2023-11-02T05:29:46.014Z,94.07
2023-11-02T05:30:49.491Z,94.54
2023-11-02T05:31:53.272Z,94.31
2023-11-02T05:32:56.776Z,94.07
2023-11-02T05:34:00.207Z,94.01
2023-11-02T05:35:03.772Z,93.77
2023-11-02T05:36:07.854Z,93.57
2023-11-02T05:37:10.929Z,92.65
2023-11-02T05:38:14.358Z,92.45
2023-11-02T05:39:17.729Z,92.75
2023-11-02T05:40:20.738Z,92.84
2023-11-02T05:41:24.758Z,92.99
2023-11-02T05:42:28.186Z,93.20
2023-11-02T05:43:31.324Z,93.56
2023-11-02T05:44:34.596Z,93.87
2023-11-02T05:45:37.940Z,93.79
2023-11-02T05:46:41.017Z,93.82
2023-11-02T05:47:44.006Z,93.98
2023-11-02T05:48:46.979Z,93.89
2023-11-02T05:49:50.264Z,94.13
2023-11-02T05:50:53.482Z,94.52
2023-11-02T05:51:56.901Z,95.06
2023-11-02T05:53:00.157Z,95.32
2023-11-02T05:54:03.079Z,95.36
2023-11-02T05:55:06.971Z,95.77
2023-11-02T05:56:10.207Z,95.55
2023-11-02T05:57:13.456Z,95.74
2023-11-02T05:58:16.534Z,96.15
2023-11-02T05:59:19.581Z,96.58
2023-11-02T06:00:22.902Z,96.69
2023-11-02T06:01:26.399Z,96.78
2023-11-02T06:02:33.842Z,97.00
2023-11-02T06:03:36.801Z,97.19
2023-11-02T06:04:40.137Z,97.47
2023-11-02T06:05:43.087Z,97.27
2023-11-02T06:06:46.269Z,96.96
2023-11-02T06:07:49.492Z,97.38
2023-11-02T06:08:52.614Z,97.44
2023-11-02T06:09:55.909Z,96.86
2023-11-02T06:10:59.271Z,96.89
2023-11-02T06:12:02.681Z,97.12
2023-11-02T06:13:06.601Z,97.37
2023-11-02T06:14:09.665Z,97.74
2023-11-02T06:15:13.084Z,98.02
2023-11-02T06:16:17.049Z,98.00
2023-11-02T06:17:20.106Z,97.37
2023-11-02T06:18:23.606Z,97.47
2023-11-02T06:19:26.983Z,97.83
2023-11-02T06:20:30.083Z,98.09
2023-11-02T06:21:33.151Z,98.17
2023-11-02T06:22:36.637Z,98.37
2023-11-02T06:23:39.976Z,97.69
2023-11-02T06:24:44.372Z,97.90
2023-11-02T06:25:48.252Z,97.71
2023-11-02T06:26:51.612Z,97.81
2023-11-02T06:27:54.812Z,97.87
2023-11-02T06:28:58.056Z,98.10
2023-11-02T06:30:01.609Z,98.31
2023-11-02T06:31:04.957Z,98.21
2023-11-02T06:32:07.924Z,97.94
2023-11-02T06:33:11.342Z,98.00
2023-11-02T06:34:17.562Z,98.09
2023-11-02T06:35:20.901Z,97.87
2023-11-02T06:36:23.862Z,97.86
2023-11-02T06:37:26.969Z,96.88
2023-11-02T06:38:31.054Z,97.23
2023-11-02T06:39:34.507Z,97.27
2023-11-02T06:40:37.788Z,97.35
2023-11-02T06:41:41.049Z,97.35
2023-11-02T06:42:44.338Z,96.69
2023-11-02T06:43:47.214Z,96.74
2023-11-02T06:44:50.412Z,96.70
2023-11-02T06:45:53.874Z,96.65
2023-11-02T06:46:57.494Z,96.02
2023-11-02T06:48:00.828Z,95.61
2023-11-02T06:49:05.923Z,95.29
2023-11-02T06:50:09.904Z,94.93
2023-11-02T06:51:12.879Z,94.16
2023-11-02T06:52:16.103Z,94.00
2023-11-02T06:53:19.265Z,92.98
2023-11-02T06:54:22.677Z,93.07
2023-11-02T06:55:25.992Z,92.70
2023-11-02T06:56:29.410Z,91.15
2023-11-02T06:57:32.749Z,90.40
2023-11-02T06:58:36.148Z,90.32
2023-11-02T06:59:39.433Z,90.33
2023-11-02T07:00:43.578Z,90.29
2023-11-02T07:01:48.186Z,90.93
2023-11-02T07:02:51.840Z,91.37
2023-11-02T07:03:55.026Z,90.76
2023-11-02T07:04:59.717Z,90.34
2023-11-02T07:06:04.351Z,90.46
2023-11-02T07:07:07.816Z,91.13
2023-11-02T07:08:11.200Z,90.99
2023-11-02T07:09:15.425Z,91.11
2023-11-02T07:10:19.115Z,91.20
2023-11-02T07:11:23.256Z,91.37
2023-11-02T07:12:26.590Z,91.69
2023-11-02T07:13:30.736Z,91.04
2023-11-02T07:14:34.215Z,91.14
2023-11-02T07:15:37.656Z,90.89
2023-11-02T07:16:41.152Z,91.10
2023-11-02T07:17:44.616Z,90.74
2023-11-02T07:18:48.025Z,90.47
2023-11-02T07:19:51.334Z,90.27
2023-11-02T07:20:54.653Z,89.42
2023-11-02T07:21:59.765Z,89.63
2023-11-02T07:23:03.194Z,90.06
2023-11-02T07:24:06.787Z,90.10
2023-11-02T07:25:11.208Z,89.88
2023-11-02T07:26:14.433Z,90.40
2023-11-02T07:27:18.098Z,90.39
2023-11-02T07:28:21.524Z,90.83
2023-11-02T07:29:24.796Z,91.12
2023-11-02T07:30:27.869Z,91.44
2023-11-02T07:31:31.255Z,90.83
2023-11-02T07:32:34.745Z,90.26
2023-11-02T07:33:42.096Z,89.28
2023-11-02T07:34:45.753Z,89.11
2023-11-02T07:35:49.136Z,89.49
2023-11-02T07:36:54.720Z,88.92
2023-11-02T07:37:58.195Z,89.45
2023-11-02T07:39:01.469Z,89.82
2023-11-02T07:40:06.485Z,90.38
2023-11-02T07:41:10.170Z,89.61
2023-11-02T07:42:13.523Z,88.15
2023-11-02T07:43:16.856Z,87.46
2023-11-02T07:44:20.282Z,87.15
2023-11-02T07:45:23.723Z,87.08
2023-11-02T07:46:26.864Z,86.75
2023-11-02T07:47:30.115Z,86.96
2023-11-02T07:48:33.603Z,86.74
2023-11-02T07:49:39.300Z,87.34
2023-11-02T07:50:42.815Z,86.62
2023-11-02T07:51:46.121Z,85.92
2023-11-02T07:52:49.192Z,86.01
2023-11-02T07:53:52.468Z,85.61
2023-11-02T07:54:56.183Z,84.13
2023-11-02T07:55:59.273Z,84.10
2023-11-02T07:57:08.498Z,83.34
2023-11-02T07:58:11.990Z,82.93
2023-11-02T07:59:15.410Z,81.60
2023-11-02T08:00:20.435Z,81.43
2023-11-02T08:01:26.273Z,81.47
2023-11-02T08:02:29.198Z,80.82
2023-11-02T08:03:32.242Z,80.12
2023-11-02T08:04:36.011Z,79.10
2023-11-02T08:05:40.755Z,79.00
2023-11-02T08:06:44.167Z,78.87
2023-11-02T08:07:47.474Z,79.12
2023-11-02T08:08:51.946Z,77.45
2023-11-02T08:09:55.111Z,77.57
2023-11-02T08:10:58.400Z,76.53
2023-11-02T08:12:01.987Z,76.32
2023-11-02T08:13:04.915Z,75.07
2023-11-02T08:14:08.736Z,73.90
2023-11-02T08:15:11.743Z,72.60
2023-11-02T08:16:23.645Z,71.98
2023-11-02T08:17:29.574Z,71.30
2023-11-02T08:18:36.017Z,70.39
2023-11-02T08:19:40.220Z,70.48
2023-11-02T08:20:43.190Z,69.91
2023-11-02T08:21:46.282Z,67.72
2023-11-02T08:22:49.672Z,67.15
2023-11-02T08:23:53.339Z,66.32
2023-11-02T08:24:56.894Z,65.37
2023-11-02T08:26:00.344Z,64.84
2023-11-02T08:27:03.477Z,63.78
2023-11-02T08:28:06.911Z,61.22
2023-11-02T08:29:10.766Z,62.19
2023-11-02T08:30:14.194Z,59.85
2023-11-02T08:31:30.348Z,59.72
2023-11-02T08:32:33.402Z,59.28
2023-11-02T08:33:38.237Z,57.74
2023-11-02T08:34:42.969Z,56.56
2023-11-02T08:35:46.216Z,56.39
2023-11-02T08:36:49.712Z,54.80
2023-11-02T08:37:53.492Z,54.36
2023-11-02T08:38:57.178Z,53.58
2023-11-02T08:40:00.981Z,52.95
2023-11-02T08:41:04.406Z,53.02
2023-11-02T08:42:08.130Z,53.80
2023-11-02T08:43:11.448Z,51.73
2023-11-02T08:44:14.649Z,52.12
2023-11-02T08:45:19.074Z,51.53
2023-11-02T08:46:26.836Z,50.46
2023-11-02T08:47:31.124Z,50.08
2023-11-02T08:48:34.180Z,49.86
2023-11-02T08:49:38.793Z,50.51
2023-11-02T08:50:42.588Z,50.53
2023-11-02T08:51:46.059Z,48.40
2023-11-02T08:52:49.373Z,48.33
2023-11-02T08:53:53.354Z,48.94
2023-11-02T08:54:56.270Z,48.58
2023-11-02T08:55:59.470Z,48.34
2023-11-02T08:57:02.393Z,47.66
2023-11-02T08:58:05.646Z,47.25
2023-11-02T08:59:09.041Z,46.93
2023-11-02T09:00:12.704Z,45.68
2023-11-02T09:01:27.078Z,46.13
2023-11-02T09:02:31.530Z,44.59
2023-11-02T09:03:34.795Z,44.35
2023-11-02T09:04:38.085Z,44.14
2023-11-02T09:05:41.276Z,44.34
2023-11-02T09:06:44.961Z,42.85
2023-11-02T09:07:48.376Z,42.72
2023-11-02T09:08:52.921Z,42.58
2023-11-02T09:09:56.333Z,43.67
2023-11-02T09:10:59.412Z,43.91
2023-11-02T09:12:02.824Z,43.90
2023-11-02T09:13:06.025Z,43.81
2023-11-02T09:14:09.404Z,43.95
2023-11-02T09:15:12.797Z,43.58
2023-11-02T09:16:16.101Z,44.33
2023-11-02T09:17:19.830Z,43.82
2023-11-02T09:18:23.621Z,44.26
2023-11-02T09:19:27.019Z,43.62
2023-11-02T09:20:30.037Z,44.15
2023-11-02T09:22:44.325Z,44.59
2023-11-02T09:23:47.365Z,43.25
2023-11-02T09:24:50.491Z,43.48
2023-11-02T09:25:55.247Z,42.47
2023-11-02T09:26:58.458Z,42.63
2023-11-02T09:28:01.956Z,43.40
2023-11-02T09:29:05.387Z,43.15
2023-11-02T09:30:09.153Z,42.29
2023-11-02T09:31:14.297Z,42.92
2023-11-02T09:32:17.648Z,42.56
2023-11-02T09:33:21.439Z,42.94
2023-11-02T09:34:24.849Z,42.81
2023-11-02T09:35:28.882Z,43.71
2023-11-02T09:36:32.039Z,43.36
2023-11-02T09:37:35.063Z,43.29
2023-11-02T09:38:38.126Z,42.55
2023-11-02T09:39:41.471Z,42.62
2023-11-02T09:40:45.171Z,42.34
2023-11-02T09:41:48.553Z,43.03
2023-11-02T09:42:52.526Z,42.46
2023-11-02T09:43:57.250Z,41.69
2023-11-02T09:45:01.470Z,43.88
2023-11-02T09:46:05.401Z,43.83
2023-11-02T09:47:09.166Z,42.59
2023-11-02T09:48:12.890Z,42.05
2023-11-02T09:49:16.582Z,41.27
2023-11-02T09:50:19.607Z,41.54
2023-11-02T09:51:23.531Z,41.39
2023-11-02T09:52:27.271Z,42.15
2023-11-02T09:53:31.099Z,42.61
2023-11-02T09:54:45.647Z,42.88
2023-11-02T09:55:52.449Z,40.98
2023-11-02T09:56:58.202Z,40.84
2023-11-02T09:58:02.182Z,42.05
2023-11-02T09:59:05.831Z,42.79
2023-11-02T10:00:10.307Z,41.90
2023-11-02T10:01:15.372Z,41.90
2023-11-02T10:02:19.311Z,42.98
2023-11-02T10:03:22.660Z,43.42
2023-11-02T10:04:26.313Z,42.60
2023-11-02T10:05:30.173Z,42.19
2023-11-02T10:06:34.152Z,41.83
2023-11-02T10:07:37.126Z,41.21
2023-11-02T10:08:40.694Z,41.30
2023-11-02T10:09:44.713Z,40.00
2023-11-02T10:10:48.419Z,40.79
2023-11-02T10:11:52.364Z,41.35
2023-11-02T10:12:55.524Z,41.11
2023-11-02T10:13:58.687Z,40.77
2023-11-02T10:15:01.542Z,41.59
2023-11-02T10:16:05.376Z,41.31
2023-11-02T10:17:08.831Z,41.92
2023-11-02T10:18:16.395Z,42.72
2023-11-02T10:19:19.989Z,41.92
2023-11-02T10:20:23.173Z,41.52
2023-11-02T10:21:26.425Z,43.70
2023-11-02T10:22:29.858Z,44.19
2023-11-02T10:23:54.044Z,42.58
2023-11-02T10:24:59.477Z,41.28
2023-11-02T10:26:02.777Z,42.20
2023-11-02T10:27:07.153Z,41.88
2023-11-02T10:28:15.236Z,40.26
2023-11-02T10:29:18.678Z,40.59
2023-11-02T10:30:22.618Z,39.46
2023-11-02T10:31:28.717Z,39.38
2023-11-02T10:32:32.042Z,38.77
2023-11-02T10:33:37.679Z,39.67
2023-11-02T10:34:44.901Z,38.73
2023-11-02T10:35:49.805Z,39.61
2023-11-02T10:36:54.022Z,39.58
2023-11-02T10:37:57.313Z,42.67
2023-11-02T10:40:20.584Z,41.77
2023-11-02T10:41:23.298Z,41.64
2023-11-02T10:42:27.838Z,41.40
2023-11-02T10:43:34.257Z,41.50
2023-11-02T10:44:40.003Z,40.90
2023-11-02T10:45:48.336Z,40.80
2023-11-02T10:46:58.418Z,40.48
2023-11-02T10:48:04.259Z,41.46
2023-11-02T10:49:12.500Z,40.53
2023-11-02T10:50:19.962Z,40.78
2023-11-02T10:51:26.282Z,40.81
2023-11-02T10:52:30.999Z,40.51
2023-11-02T10:53:47.422Z,39.65
2023-11-02T10:55:11.882Z,38.97
2023-11-02T10:56:22.079Z,38.47
2023-11-02T10:57:25.180Z,38.65
2023-11-02T10:58:29.958Z,40.54
2023-11-02T10:59:34.955Z,41.74
2023-11-02T11:00:38.853Z,40.34
2023-11-02T11:01:43.429Z,42.47
2023-11-02T11:02:48.394Z,42.03
2023-11-02T11:03:52.594Z,42.95
2023-11-02T11:04:59.305Z,42.03
2023-11-02T11:06:03.833Z,42.41
2023-11-02T11:07:07.485Z,42.18
2023-11-02T11:08:12.270Z,42.79
2023-11-02T11:09:16.928Z,42.18
2023-11-02T11:10:21.331Z,41.60
2023-11-02T11:11:25.593Z,41.04
2023-11-02T11:12:29.819Z,39.96
2023-11-02T11:13:33.593Z,41.02
2023-11-02T11:14:39.042Z,39.31
2023-11-02T11:15:42.700Z,39.87
2023-11-02T11:16:48.128Z,39.98
2023-11-02T11:17:51.719Z,40.09
2023-11-02T11:18:55.363Z,41.95
2023-11-02T11:19:59.032Z,40.81
2023-11-02T11:21:03.571Z,42.44
2023-11-02T11:22:12.705Z,41.11
2023-11-02T11:23:18.005Z,41.92
2023-11-02T11:24:23.586Z,42.79
2023-11-02T11:25:27.603Z,42.34
2023-11-02T11:26:46.479Z,43.20
2023-11-02T11:27:49.584Z,41.70
2023-11-02T11:28:53.996Z,42.30
2023-11-02T11:29:56.712Z,41.37
2023-11-02T11:31:01.019Z,42.57
2023-11-02T11:32:09.355Z,42.10
2023-11-02T11:33:51.523Z,42.31
2023-11-02T11:34:54.582Z,41.21
2023-11-02T11:36:19.798Z,41.76
2023-11-02T11:37:49.092Z,42.36
2023-11-02T11:38:53.172Z,40.40
2023-11-02T11:39:56.168Z,40.50
2023-11-02T11:40:59.588Z,40.97
2023-11-02T11:42:02.981Z,40.87
2023-11-02T11:43:09.733Z,40.70
2023-11-02T11:44:22.958Z,40.27
2023-11-02T11:45:44.514Z,40.86
2023-11-02T11:46:53.959Z,42.27
2023-11-02T11:47:58.425Z,43.59
2023-11-02T11:49:02.965Z,44.29
2023-11-02T11:50:06.298Z,43.68
2023-11-02T11:51:43.303Z,42.52
2023-11-02T11:52:46.387Z,44.56
2023-11-02T11:54:09.139Z,43.76
2023-11-02T11:55:33.922Z,42.78
2023-11-02T11:56:37.208Z,40.86
2023-11-02T11:57:56.279Z,40.68
2023-11-02T11:59:00.397Z,40.89
2023-11-02T12:00:13.857Z,40.48
2023-11-02T12:01:19.461Z,40.65
2023-11-02T12:02:40.985Z,40.99
2023-11-02T12:03:48.627Z,41.74
2023-11-02T12:04:59.047Z,41.71
2023-11-02T12:06:05.409Z,40.04
2023-11-02T12:07:09.157Z,39.78
2023-11-02T12:08:12.971Z,41.14
2023-11-02T12:09:17.627Z,40.33
2023-11-02T12:10:24.065Z,39.46
2023-11-02T12:11:27.005Z,39.51
2023-11-02T12:12:30.271Z,39.33
2023-11-02T12:13:37.107Z,41.14
2023-11-02T12:14:39.827Z,40.48
2023-11-02T12:16:00.308Z,39.19
2023-11-02T12:17:05.777Z,39.20
2023-11-02T12:18:09.504Z,39.85
2023-11-02T12:19:13.211Z,41.76
2023-11-02T12:20:38.137Z,41.52
2023-11-02T12:21:42.376Z,39.81
2023-11-02T12:22:52.391Z,40.01
2023-11-02T12:23:55.893Z,40.26
2023-11-02T12:24:59.317Z,40.32
2023-11-02T12:26:05.777Z,41.49
2023-11-02T12:27:17.302Z,43.20
2023-11-02T12:28:20.474Z,43.20
2023-11-02T12:29:25.518Z,42.20
2023-11-02T12:30:30.886Z,42.92
2023-11-02T12:31:38.080Z,43.13
2023-11-02T12:32:41.625Z,43.36
2023-11-02T12:33:49.629Z,43.42
2023-11-02T12:34:56.387Z,43.52
2023-11-02T12:36:00.202Z,42.56
2023-11-02T12:37:05.824Z,42.80
2023-11-02T12:38:08.852Z,41.91
2023-11-02T12:39:15.793Z,41.65
2023-11-02T12:40:18.841Z,41.87
2023-11-02T12:41:32.453Z,42.02
2023-11-02T12:42:38.614Z,41.47
2023-11-02T12:43:42.240Z,41.81
2023-11-02T12:44:45.594Z,41.63
2023-11-02T12:45:56.309Z,43.29
2023-11-02T12:47:08.494Z,41.48
2023-11-02T12:48:31.688Z,39.56
2023-11-02T12:49:35.185Z,40.56
2023-11-02T12:50:38.354Z,40.70
2023-11-02T12:51:41.520Z,40.42
2023-11-02T12:52:46.980Z,40.28
2023-11-02T12:53:52.077Z,40.48
2023-11-02T12:54:58.247Z,41.21
2023-11-02T12:56:01.864Z,41.78
2023-11-02T12:57:10.767Z,40.19
2023-11-02T12:58:16.661Z,39.59
2023-11-02T12:59:19.718Z,41.08
2023-11-02T13:00:22.823Z,39.99
2023-11-02T13:01:46.926Z,40.33
2023-11-02T13:02:51.967Z,38.81
2023-11-02T13:04:00.778Z,39.08
2023-11-02T13:05:04.779Z,38.90
2023-11-02T13:06:24.689Z,39.21
2023-11-02T13:07:30.306Z,38.94
2023-11-02T13:08:33.978Z,39.72
2023-11-02T13:09:36.978Z,38.89
2023-11-02T13:10:46.666Z,39.91
2023-11-02T13:11:54.984Z,40.42
2023-11-02T13:12:58.010Z,39.60
2023-11-02T13:14:01.154Z,39.43
2023-11-02T13:15:10.446Z,39.36
2023-11-02T13:16:15.523Z,39.54
2023-11-02T13:17:18.350Z,39.96
2023-11-02T13:18:21.554Z,39.68
2023-11-02T13:19:26.121Z,40.11
2023-11-02T13:20:29.467Z,41.27
2023-11-02T13:21:35.668Z,40.80
2023-11-02T13:22:39.462Z,41.89
2023-11-02T13:23:48.308Z,42.56
2023-11-02T13:24:52.183Z,41.59
2023-11-02T13:25:55.838Z,41.08
2023-11-02T13:26:59.825Z,41.68
2023-11-02T13:28:06.781Z,41.80
2023-11-02T13:29:11.657Z,41.95
2023-11-02T13:30:18.684Z,41.22
2023-11-02T13:31:22.294Z,40.90
2023-11-02T13:32:25.544Z,40.03
2023-11-02T13:33:30.719Z,40.57
2023-11-02T13:34:33.685Z,41.79
2023-11-02T13:35:36.900Z,42.49
2023-11-02T13:36:42.751Z,41.56
2023-11-02T13:37:47.518Z,41.57
2023-11-02T13:38:51.187Z,42.00
2023-11-02T13:39:54.782Z,42.38
2023-11-02T13:40:59.566Z,42.38
2023-11-02T13:42:02.623Z,42.13
2023-11-02T13:43:05.637Z,42.24
2023-11-02T13:44:08.352Z,42.06
2023-11-02T13:45:12.242Z,42.91
2023-11-02T13:46:15.683Z,42.82
2023-11-02T13:47:19.637Z,43.75
2023-11-02T13:48:22.560Z,44.10
2023-11-02T13:49:26.734Z,44.51
2023-11-02T13:50:30.101Z,44.10
2023-11-02T13:51:33.421Z,45.63
2023-11-02T13:52:36.836Z,45.98
2023-11-02T13:53:39.428Z,46.33
2023-11-02T13:54:42.596Z,47.00
2023-11-02T13:55:45.771Z,47.49
2023-11-02T13:56:48.852Z,47.58
2023-11-02T13:57:52.194Z,47.82
2023-11-02T13:58:55.360Z,48.93
2023-11-02T14:00:00.094Z,49.35
2023-11-02T14:01:03.929Z,50.26
2023-11-02T14:02:08.289Z,50.59
2023-11-02T14:03:11.883Z,50.82
2023-11-02T14:04:15.331Z,50.83
2023-11-02T14:05:18.992Z,51.78
2023-11-02T14:06:22.662Z,51.41
2023-11-02T14:07:27.133Z,51.94
2023-11-02T14:08:29.936Z,52.16
2023-11-02T14:09:32.828Z,51.83
2023-11-02T14:10:35.632Z,52.42
2023-11-02T14:11:38.404Z,52.99
2023-11-02T14:12:42.740Z,53.38
2023-11-02T14:13:45.592Z,53.24
2023-11-02T14:14:51.182Z,53.62
2023-11-02T14:15:54.484Z,53.06
2023-11-02T14:16:58.055Z,53.19
2023-11-02T14:18:01.139Z,53.47
2023-11-02T14:19:04.225Z,53.43
2023-11-02T14:20:08.544Z,53.93
2023-11-02T14:21:12.133Z,54.23
2023-11-02T14:22:15.053Z,54.39
2023-11-02T14:23:18.489Z,54.56
2023-11-02T14:24:21.561Z,54.50
2023-11-02T14:25:26.270Z,55.31
2023-11-02T14:26:29.282Z,55.10
2023-11-02T14:27:32.485Z,55.07